createdAt,value
2023-08-11T00:01:06.076Z,63.55
2023-08-11T00:03:32.666Z,63.19
2023-08-11T00:05:59.422Z,63.67
2023-08-11T00:08:25.936Z,63.42
2023-08-11T00:10:52.515Z,63.46
2023-08-11T00:13:19.097Z,64.22
2023-08-11T00:15:45.715Z,64.13
2023-08-11T00:18:12.262Z,64.33
2023-08-11T00:20:38.883Z,64.79
2023-08-11T00:23:06.133Z,64.87
2023-08-11T00:25:32.743Z,65.07
2023-08-11T00:27:59.266Z,65.40
2023-08-11T00:30:26.744Z,65.38
2023-08-11T00:32:53.405Z,65.34
2023-08-11T00:35:20.218Z,65.58
2023-08-11T00:37:47.480Z,65.82
2023-08-11T00:40:14.080Z,66.24
2023-08-11T00:42:41.146Z,66.03
2023-08-11T00:45:08.128Z,66.03
2023-08-11T00:47:34.702Z,66.72
2023-08-11T00:50:01.274Z,66.77
2023-08-11T00:52:27.897Z,66.92
2023-08-11T00:54:56.624Z,66.46
2023-08-11T00:57:23.591Z,67.07
2023-08-11T00:59:50.732Z,67.10
2023-08-11T01:02:17.630Z,67.58
2023-08-11T01:04:44.258Z,67.62
2023-08-11T01:07:21.231Z,67.97
2023-08-11T01:10:14.008Z,67.94
2023-08-11T01:12:49.141Z,68.24
2023-08-11T01:15:24.778Z,68.04
2023-08-11T01:17:53.828Z,67.85
2023-08-11T01:20:21.358Z,68.14
2023-08-11T01:22:54.853Z,68.39
2023-08-11T01:25:22.094Z,68.27
2023-08-11T01:27:55.069Z,68.47
2023-08-11T01:30:22.204Z,68.80
2023-08-11T01:32:49.455Z,68.64
2023-08-11T01:35:22.564Z,68.64
2023-08-11T01:37:56.256Z,68.78
2023-08-11T01:40:30.051Z,68.94
2023-08-11T01:43:01.835Z,68.80
2023-08-11T01:45:28.648Z,68.87
2023-08-11T01:47:55.346Z,69.48
2023-08-11T01:50:22.855Z,69.16
2023-08-11T01:52:49.960Z,69.38
2023-08-11T01:55:17.041Z,69.86
2023-08-11T01:57:52.103Z,69.35
2023-08-11T02:00:23.409Z,69.69
2023-08-11T02:02:51.192Z,69.47
2023-08-11T02:05:17.857Z,69.92
2023-08-11T02:07:45.229Z,69.92
2023-08-11T02:10:12.717Z,70.03
2023-08-11T02:12:40.802Z,69.88
2023-08-11T02:15:08.735Z,69.95
2023-08-11T02:17:35.825Z,70.38
2023-08-11T02:20:02.838Z,70.65
2023-08-11T02:22:29.340Z,70.76
2023-08-11T02:24:55.888Z,70.87
2023-08-11T02:27:22.461Z,70.91
2023-08-11T02:29:49.762Z,70.85
2023-08-11T02:32:16.292Z,71.30
2023-08-11T02:34:42.860Z,71.21
2023-08-11T02:37:09.670Z,71.82
2023-08-11T02:39:40.318Z,71.39
2023-08-11T02:42:07.629Z,71.68
2023-08-11T02:44:34.382Z,71.63
2023-08-11T02:47:00.967Z,72.32
2023-08-11T02:49:27.474Z,72.33
2023-08-11T02:51:54.064Z,72.72
2023-08-11T02:54:20.566Z,72.76
2023-08-11T02:56:48.244Z,72.97
2023-08-11T02:59:15.175Z,72.85
2023-08-11T03:01:41.858Z,72.86
2023-08-11T03:04:08.538Z,72.64
2023-08-11T03:06:35.277Z,73.43
2023-08-11T03:09:02.252Z,73.59
2023-08-11T03:11:28.825Z,73.17
2023-08-11T03:13:55.326Z,72.69
2023-08-11T03:16:22.113Z,73.75
2023-08-11T03:18:48.667Z,73.86
2023-08-11T03:21:19.981Z,73.66
2023-08-11T03:23:48.645Z,73.69
2023-08-11T03:26:15.583Z,73.22
2023-08-11T03:28:42.541Z,73.81
2023-08-11T03:31:10.356Z,73.67
2023-08-11T03:33:40.794Z,74.25
2023-08-11T03:36:11.588Z,74.02
2023-08-11T03:38:38.400Z,74.74
2023-08-11T03:41:04.995Z,74.65
2023-08-11T03:43:31.591Z,74.20
2023-08-11T03:45:58.433Z,74.08
2023-08-11T03:48:26.356Z,74.48
2023-08-11T03:50:52.869Z,74.53
2023-08-11T03:53:19.448Z,74.83
2023-08-11T03:55:46.042Z,74.88
2023-08-11T03:58:13.740Z,75.08
2023-08-11T04:00:41.030Z,75.01
2023-08-11T04:03:12.219Z,75.08
2023-08-11T04:05:38.925Z,75.46
2023-08-11T04:08:05.685Z,75.74
2023-08-11T04:10:32.533Z,75.58
2023-08-11T04:12:59.218Z,76.38
2023-08-11T04:15:25.795Z,75.67
2023-08-11T04:17:52.432Z,76.40
2023-08-11T04:20:19.123Z,76.59
2023-08-11T04:22:45.836Z,77.06
2023-08-11T04:25:13.366Z,77.36
2023-08-11T04:27:43.228Z,77.48
2023-08-11T04:30:10.509Z,76.95
2023-08-11T04:32:39.016Z,76.82
2023-08-11T04:35:06.430Z,77.17
2023-08-11T04:37:34.235Z,77.15
2023-08-11T04:40:02.751Z,77.58
2023-08-11T04:42:29.382Z,77.58
2023-08-11T04:44:57.590Z,77.96
2023-08-11T04:47:24.142Z,77.40
2023-08-11T04:49:50.845Z,77.97
2023-08-11T04:52:18.155Z,78.42
2023-08-11T04:54:44.728Z,78.45
2023-08-11T04:57:11.306Z,78.08
2023-08-11T04:59:38.918Z,78.40
2023-08-11T05:02:05.862Z,78.33
2023-08-11T05:04:32.579Z,78.94
2023-08-11T05:06:59.064Z,78.72
2023-08-11T05:09:25.768Z,79.02
2023-08-11T05:11:52.260Z,79.04
2023-08-11T05:14:18.820Z,78.71
2023-08-11T05:16:46.003Z,78.64
2023-08-11T05:19:12.604Z,79.26
2023-08-11T05:21:39.090Z,79.13
2023-08-11T05:24:06.845Z,79.03
2023-08-11T05:26:33.681Z,78.69
2023-08-11T05:29:00.207Z,79.16
2023-08-11T05:31:26.867Z,79.22
2023-08-11T05:33:53.570Z,79.17
2023-08-11T05:36:20.281Z,78.87
2023-08-11T05:38:46.915Z,78.78
2023-08-11T05:41:13.563Z,78.93
2023-08-11T05:43:40.184Z,78.97
2023-08-11T05:46:07.075Z,79.32
2023-08-11T05:48:37.107Z,79.67
2023-08-11T05:51:06.751Z,79.76
2023-08-11T05:53:33.237Z,79.52
2023-08-11T05:55:59.811Z,79.66
2023-08-11T05:58:26.364Z,80.06
2023-08-11T06:00:52.954Z,79.88
2023-08-11T06:03:19.518Z,79.89
2023-08-11T06:05:46.057Z,80.02
2023-08-11T06:08:12.647Z,79.92
2023-08-11T06:10:39.260Z,79.94
2023-08-11T06:13:05.877Z,80.23
2023-08-11T06:15:32.472Z,80.35
2023-08-11T06:17:59.175Z,80.55
2023-08-11T06:20:38.543Z,80.61
2023-08-11T06:23:07.362Z,80.95
2023-08-11T06:25:33.962Z,80.63
2023-08-11T06:28:00.537Z,80.88
2023-08-11T06:30:27.149Z,80.63
2023-08-11T06:32:53.773Z,80.44
2023-08-11T06:35:20.615Z,80.99
2023-08-11T06:37:47.448Z,80.86
2023-08-11T06:40:13.991Z,80.36
2023-08-11T06:42:40.988Z,80.50
2023-08-11T06:45:09.957Z,80.33
2023-08-11T06:47:36.792Z,80.54
2023-08-11T06:50:03.601Z,80.15
2023-08-11T06:52:30.389Z,80.14
2023-08-11T06:54:56.961Z,80.39
2023-08-11T06:57:24.295Z,80.05
2023-08-11T06:59:50.837Z,79.73
2023-08-11T07:02:17.440Z,79.36
2023-08-11T07:04:43.985Z,79.93
2023-08-11T07:07:10.766Z,79.43
2023-08-11T07:09:37.543Z,79.26
2023-08-11T07:12:04.419Z,79.26
2023-08-11T07:14:30.953Z,79.59
2023-08-11T07:16:57.634Z,78.94
2023-08-11T07:19:24.390Z,78.93
2023-08-11T07:21:50.988Z,78.95
2023-08-11T07:24:17.490Z,78.69
2023-08-11T07:26:44.042Z,78.86
2023-08-11T07:29:10.559Z,78.45
2023-08-11T07:31:37.119Z,78.07
2023-08-11T07:34:03.940Z,77.81
2023-08-11T07:36:30.531Z,77.30
2023-08-11T07:39:09.071Z,76.61
2023-08-11T07:41:43.700Z,77.09
2023-08-11T07:44:10.373Z,76.31
2023-08-11T07:46:37.063Z,76.50
2023-08-11T07:49:04.139Z,74.67
2023-08-11T07:51:30.737Z,75.01
2023-08-11T07:53:57.997Z,74.53
2023-08-11T07:56:24.664Z,73.78
2023-08-11T07:58:51.226Z,72.23
2023-08-11T08:01:17.785Z,72.27
2023-08-11T08:03:44.479Z,71.45
2023-08-11T08:06:11.202Z,71.49
2023-08-11T08:08:37.902Z,70.09
2023-08-11T08:11:04.683Z,69.02
2023-08-11T08:13:32.228Z,68.42
2023-08-11T08:15:58.820Z,67.54
2023-08-11T08:18:25.457Z,66.47
2023-08-11T08:20:52.185Z,65.77
2023-08-11T08:23:18.789Z,65.89
2023-08-11T08:25:45.417Z,65.49
2023-08-11T08:28:12.092Z,65.28
2023-08-11T08:30:38.876Z,65.17
2023-08-11T08:33:05.508Z,65.38
2023-08-11T08:35:32.282Z,65.25
2023-08-11T08:37:58.804Z,65.35
2023-08-11T08:40:27.029Z,66.16
2023-08-11T08:42:53.854Z,64.97
2023-08-11T08:45:22.277Z,65.02
2023-08-11T08:47:50.573Z,63.69
2023-08-11T08:50:19.889Z,63.54
2023-08-11T08:52:48.191Z,63.13
2023-08-11T08:55:14.858Z,63.02
2023-08-11T08:57:41.552Z,62.36
2023-08-11T09:00:08.711Z,62.35
2023-08-11T09:02:36.209Z,61.36
2023-08-11T09:05:09.977Z,59.50
2023-08-11T09:07:36.727Z,59.65
2023-08-11T09:10:03.394Z,59.25
2023-08-11T09:12:30.034Z,59.77
2023-08-11T09:14:56.613Z,59.55
2023-08-11T09:17:23.238Z,59.89
2023-08-11T09:19:53.876Z,59.22
2023-08-11T09:22:26.832Z,58.30
2023-08-11T09:24:54.150Z,58.35
2023-08-11T09:27:21.417Z,57.69
2023-08-11T09:29:48.364Z,57.83
2023-08-11T09:32:15.249Z,57.78
2023-08-11T09:34:44.402Z,57.69
2023-08-11T09:37:11.109Z,57.53
2023-08-11T09:39:37.711Z,57.80
2023-08-11T09:42:04.944Z,56.83
2023-08-11T09:44:31.711Z,56.59
2023-08-11T09:46:58.355Z,56.28
2023-08-11T09:49:24.959Z,56.23
2023-08-11T09:51:53.015Z,54.78
2023-08-11T09:54:20.164Z,54.64
2023-08-11T09:56:46.778Z,54.40
2023-08-11T09:59:18.014Z,54.56
2023-08-11T10:01:45.548Z,53.32
2023-08-11T10:04:34.471Z,51.71
2023-08-11T10:07:04.240Z,49.47
2023-08-11T10:09:33.987Z,48.53
2023-08-11T10:12:01.682Z,49.23
2023-08-11T10:14:29.358Z,48.57
2023-08-11T10:16:59.232Z,47.79
2023-08-11T10:19:26.279Z,48.43
2023-08-11T10:21:53.143Z,48.30
2023-08-11T10:24:21.190Z,48.69
2023-08-11T10:26:48.699Z,47.88
2023-08-11T10:29:16.239Z,48.24
2023-08-11T10:31:54.928Z,48.13
2023-08-11T10:34:25.597Z,47.82
2023-08-11T10:36:55.984Z,47.56
2023-08-11T10:39:23.371Z,48.13
2023-08-11T10:42:03.287Z,47.81
2023-08-11T10:44:30.364Z,48.08
2023-08-11T10:46:59.665Z,48.28
2023-08-11T10:49:41.581Z,47.69
2023-08-11T10:52:08.334Z,48.41
2023-08-11T10:54:35.584Z,47.84
2023-08-11T10:57:02.559Z,48.12
2023-08-11T10:59:30.746Z,47.51
2023-08-11T11:01:58.624Z,47.14
2023-08-11T11:04:29.279Z,47.45
2023-08-11T11:06:55.877Z,47.03
2023-08-11T11:09:23.056Z,46.30
2023-08-11T11:11:50.384Z,45.91
2023-08-11T11:14:16.894Z,44.83
2023-08-11T11:16:43.704Z,44.85
2023-08-11T11:19:10.864Z,44.15
2023-08-11T11:21:40.035Z,44.83
2023-08-11T11:24:07.068Z,43.85
2023-08-11T11:26:36.774Z,43.95
2023-08-11T11:29:04.956Z,44.00
2023-08-11T11:31:35.992Z,44.18
2023-08-11T11:34:03.679Z,43.97
2023-08-11T11:36:30.863Z,44.39
2023-08-11T11:38:58.256Z,43.57
2023-08-11T11:41:24.817Z,44.49
2023-08-11T11:43:51.981Z,43.77
2023-08-11T11:46:20.817Z,43.86
2023-08-11T11:48:51.195Z,43.28
2023-08-11T11:51:24.388Z,42.58
2023-08-11T11:53:52.698Z,42.38
2023-08-11T11:56:19.771Z,42.37
2023-08-11T11:58:46.382Z,42.12
2023-08-11T12:01:15.602Z,41.28
2023-08-11T12:03:42.314Z,41.44
2023-08-11T12:06:08.996Z,40.23
2023-08-11T12:08:36.129Z,39.73
2023-08-11T12:11:04.098Z,38.57
2023-08-11T12:13:33.659Z,38.81
2023-08-11T12:16:00.783Z,39.64
2023-08-11T12:18:31.267Z,38.82
2023-08-11T12:20:58.241Z,39.54
2023-08-11T12:23:24.828Z,40.59
2023-08-11T12:25:51.461Z,39.95
2023-08-11T12:28:17.973Z,39.39
2023-08-11T12:30:44.489Z,40.23
2023-08-11T12:33:11.080Z,39.56
2023-08-11T12:35:38.035Z,39.86
2023-08-11T12:38:04.597Z,39.94
2023-08-11T12:40:31.264Z,40.81
2023-08-11T12:42:57.823Z,40.68
2023-08-11T12:45:24.393Z,41.04
2023-08-11T12:47:50.907Z,40.42
2023-08-11T12:50:17.726Z,40.20
2023-08-11T12:52:44.237Z,40.66
2023-08-11T12:55:10.757Z,40.24
2023-08-11T12:57:37.533Z,41.11
2023-08-11T13:00:04.416Z,40.71
2023-08-11T13:02:30.997Z,40.79
2023-08-11T13:04:57.581Z,40.80
2023-08-11T13:07:24.165Z,41.18
2023-08-11T13:09:50.698Z,40.88
2023-08-11T13:12:17.207Z,41.44
2023-08-11T13:14:43.852Z,41.65
2023-08-11T13:17:10.383Z,41.12
2023-08-11T13:19:37.455Z,41.12
2023-08-11T13:22:04.492Z,41.41
2023-08-11T13:24:35.102Z,41.44
2023-08-11T13:27:02.423Z,41.34
2023-08-11T13:29:29.190Z,41.00
2023-08-11T13:31:56.164Z,40.79
2023-08-11T13:34:23.165Z,41.22
2023-08-11T13:36:50.779Z,41.71
2023-08-11T13:39:17.744Z,41.29
2023-08-11T13:41:44.252Z,41.48
2023-08-11T13:44:14.038Z,41.26
2023-08-11T13:46:40.613Z,41.82
2023-08-11T13:49:08.126Z,41.83
2023-08-11T13:51:35.164Z,41.27
2023-08-11T13:54:03.717Z,41.13
2023-08-11T13:56:31.070Z,41.63
2023-08-11T13:58:57.603Z,42.21
2023-08-11T14:01:24.198Z,41.96
2023-08-11T14:03:50.715Z,41.30
2023-08-11T14:06:17.269Z,41.61
2023-08-11T14:08:43.855Z,41.36
2023-08-11T14:11:11.112Z,41.55
2023-08-11T14:13:37.650Z,41.34
2023-08-11T14:16:04.575Z,40.94
2023-08-11T14:18:31.136Z,41.10
2023-08-11T14:20:57.697Z,41.15
2023-08-11T14:23:24.239Z,42.37
2023-08-11T14:25:51.089Z,40.95
2023-08-11T14:28:17.631Z,40.71
2023-08-11T14:30:44.339Z,40.02
2023-08-11T14:33:10.952Z,40.07
2023-08-11T14:35:37.592Z,40.27
2023-08-11T14:38:04.266Z,39.78
2023-08-11T14:40:30.840Z,40.26
2023-08-11T14:42:57.364Z,40.13
2023-08-11T14:45:23.877Z,40.39
2023-08-11T14:47:50.413Z,40.03
2023-08-11T14:50:17.084Z,39.48
2023-08-11T14:52:43.627Z,39.12
2023-08-11T14:55:10.128Z,38.08
2023-08-11T14:57:36.627Z,38.65
2023-08-11T15:00:03.668Z,37.86
2023-08-11T15:02:30.532Z,37.82
2023-08-11T15:04:57.213Z,38.35
2023-08-11T15:07:23.777Z,37.60
2023-08-11T15:09:50.331Z,38.10
2023-08-11T15:12:16.900Z,38.80
2023-08-11T15:14:43.459Z,38.77
2023-08-11T15:17:10.085Z,38.09
2023-08-11T15:19:36.785Z,37.81
2023-08-11T15:22:03.277Z,37.61
2023-08-11T15:24:30.029Z,37.45
2023-08-11T15:26:56.607Z,37.82
2023-08-11T15:29:23.173Z,37.87
2023-08-11T15:31:51.069Z,37.76
2023-08-11T15:34:19.440Z,37.67
2023-08-11T15:36:45.989Z,38.49
2023-08-11T15:39:12.563Z,38.61
2023-08-11T15:41:39.115Z,38.47
2023-08-11T15:44:05.938Z,37.04
2023-08-11T15:46:32.498Z,36.59
2023-08-11T15:48:59.100Z,35.27
2023-08-11T15:51:25.607Z,35.36
2023-08-11T15:53:52.111Z,35.54
2023-08-11T15:56:18.640Z,34.66
2023-08-11T15:58:45.188Z,34.18
2023-08-11T16:01:11.723Z,33.30
2023-08-11T16:03:38.421Z,33.41
2023-08-11T16:06:05.631Z,33.27
2023-08-11T16:08:32.224Z,33.66
2023-08-11T16:10:59.114Z,33.43
2023-08-11T16:13:26.022Z,33.28
2023-08-11T16:15:52.504Z,33.79
2023-08-11T16:18:19.060Z,33.80
2023-08-11T16:20:45.588Z,33.91
2023-08-11T16:23:12.245Z,33.74
2023-08-11T16:25:38.797Z,33.78
2023-08-11T16:28:05.467Z,32.61
2023-08-11T16:30:32.160Z,32.87
2023-08-11T16:32:58.725Z,33.05
2023-08-11T16:35:25.281Z,32.27
2023-08-11T16:37:51.805Z,31.51
2023-08-11T16:40:18.431Z,31.22
2023-08-11T16:42:45.032Z,31.47
2023-08-11T16:45:11.614Z,31.35
2023-08-11T16:47:38.290Z,31.68
2023-08-11T16:50:05.342Z,31.10
2023-08-11T16:52:31.997Z,32.31
2023-08-11T16:54:58.680Z,32.63
2023-08-11T16:57:25.229Z,32.45
2023-08-11T16:59:51.957Z,34.00
2023-08-11T17:02:18.588Z,34.36
2023-08-11T17:04:45.151Z,35.22
2023-08-11T17:07:11.723Z,35.72
2023-08-11T17:09:38.292Z,35.75
2023-08-11T17:12:05.076Z,36.23
2023-08-11T17:14:31.817Z,36.08
2023-08-11T17:16:58.436Z,35.98
2023-08-11T17:19:24.991Z,36.13
2023-08-11T17:21:51.783Z,35.68
2023-08-11T17:24:18.292Z,35.94
2023-08-11T17:26:44.889Z,36.15
2023-08-11T17:29:11.460Z,36.47
2023-08-11T17:31:38.097Z,36.51
2023-08-11T17:34:04.906Z,36.57
2023-08-11T17:36:31.508Z,36.38
2023-08-11T17:38:58.047Z,35.19
2023-08-11T17:41:25.457Z,35.63
2023-08-11T17:43:52.545Z,35.76
2023-08-11T17:46:19.671Z,35.76
2023-08-11T17:48:46.404Z,36.38
2023-08-11T17:51:13.120Z,36.89
2023-08-11T17:53:39.615Z,37.33
2023-08-11T17:56:06.199Z,37.52
2023-08-11T17:58:32.712Z,38.19
2023-08-11T18:00:59.332Z,38.35
2023-08-11T18:03:25.918Z,38.57
2023-08-11T18:05:52.604Z,38.57
2023-08-11T18:08:19.171Z,38.73
2023-08-11T18:10:45.823Z,39.50
2023-08-11T18:13:12.410Z,39.77
2023-08-11T18:15:38.960Z,39.46
2023-08-11T18:18:05.664Z,39.99
2023-08-11T18:20:33.020Z,40.18
2023-08-11T18:22:59.567Z,39.93
2023-08-11T18:25:26.324Z,40.35
2023-08-11T18:27:54.600Z,41.12
2023-08-11T18:30:21.506Z,41.45
2023-08-11T18:32:48.137Z,40.94
2023-08-11T18:35:14.706Z,41.03
2023-08-11T18:37:41.281Z,41.12
2023-08-11T18:40:08.581Z,42.03
2023-08-11T18:42:35.140Z,41.41
2023-08-11T18:45:01.702Z,42.08
2023-08-11T18:47:31.029Z,41.84
2023-08-11T18:49:58.604Z,42.14
2023-08-11T18:52:25.300Z,41.93
2023-08-11T18:54:51.951Z,41.85
2023-08-11T18:57:18.456Z,42.08
2023-08-11T18:59:45.031Z,41.25
2023-08-11T19:02:12.140Z,41.83
2023-08-11T19:04:44.519Z,41.80
2023-08-11T19:07:11.210Z,41.96
2023-08-11T19:09:37.748Z,41.29
2023-08-11T19:12:04.853Z,42.32
2023-08-11T19:14:31.444Z,42.34
2023-08-11T19:16:57.992Z,42.05
2023-08-11T19:19:24.545Z,41.47
2023-08-11T19:21:51.062Z,41.92
2023-08-11T19:24:17.585Z,41.96
2023-08-11T19:26:44.115Z,42.30
2023-08-11T19:29:10.675Z,41.92
2023-08-11T19:31:37.238Z,42.09
2023-08-11T19:34:03.803Z,41.36
2023-08-11T19:36:30.435Z,42.20
2023-08-11T19:38:56.953Z,42.63
2023-08-11T19:41:23.503Z,42.17
2023-08-11T19:43:50.033Z,42.87
2023-08-11T19:46:16.623Z,43.20
2023-08-11T19:48:43.377Z,44.56
2023-08-11T19:51:09.996Z,45.26
2023-08-11T19:53:36.580Z,45.61
2023-08-11T19:56:03.287Z,46.33
2023-08-11T19:58:29.977Z,47.41
2023-08-11T20:00:57.290Z,47.73
2023-08-11T20:03:24.165Z,48.71
2023-08-11T20:05:50.881Z,48.94
2023-08-11T20:08:17.650Z,49.27
2023-08-11T20:10:46.295Z,49.54
2023-08-11T20:13:13.222Z,50.42
2023-08-11T20:15:39.883Z,50.71
2023-08-11T20:18:06.618Z,50.97
2023-08-11T20:20:33.268Z,50.92
2023-08-11T20:22:59.775Z,51.22
2023-08-11T20:25:26.467Z,51.74
2023-08-11T20:27:53.028Z,51.42
2023-08-11T20:30:19.759Z,52.02
2023-08-11T20:32:46.415Z,52.06
2023-08-11T20:35:13.127Z,51.92
2023-08-11T20:37:39.652Z,52.00
2023-08-11T20:40:06.950Z,52.18
2023-08-11T20:42:34.648Z,52.72
2023-08-11T20:45:01.277Z,53.04
2023-08-11T20:47:27.955Z,53.44
2023-08-11T20:49:54.637Z,53.29
2023-08-11T20:52:21.207Z,52.96
2023-08-11T20:54:47.795Z,53.76
2023-08-11T20:57:15.088Z,53.59
2023-08-11T20:59:41.686Z,53.78
2023-08-11T21:02:08.641Z,54.02
2023-08-11T21:04:35.584Z,53.67
2023-08-11T21:07:02.115Z,53.93
2023-08-11T21:09:28.694Z,54.50
2023-08-11T21:11:55.180Z,54.24
2023-08-11T21:14:21.814Z,54.59
2023-08-11T21:16:48.394Z,54.59
2023-08-11T21:19:15.046Z,54.97
2023-08-11T21:21:41.594Z,54.67
2023-08-11T21:24:08.197Z,54.90
2023-08-11T21:26:34.724Z,54.90
2023-08-11T21:29:01.276Z,55.25
2023-08-11T21:31:27.920Z,55.09
2023-08-11T21:33:58.943Z,55.69
2023-08-11T21:36:25.520Z,55.67
2023-08-11T21:38:52.045Z,55.78
2023-08-11T21:41:18.656Z,55.57
2023-08-11T21:43:45.142Z,55.99
2023-08-11T21:46:11.692Z,56.17
2023-08-11T21:48:38.235Z,56.41
2023-08-11T21:51:05.021Z,56.29
2023-08-11T21:53:31.560Z,56.39
2023-08-11T21:55:58.108Z,56.82
2023-08-11T21:58:24.628Z,56.70
2023-08-11T22:00:51.379Z,56.66
2023-08-11T22:03:17.991Z,56.49
2023-08-11T22:05:44.640Z,56.61
2023-08-11T22:08:11.273Z,57.13
2023-08-11T22:10:37.924Z,57.33
2023-08-11T22:13:04.666Z,57.37
2023-08-11T22:15:31.166Z,57.45
2023-08-11T22:17:57.791Z,57.43
2023-08-11T22:20:24.765Z,57.85
2023-08-11T22:22:51.320Z,57.90
2023-08-11T22:25:33.418Z,57.79
2023-08-11T22:27:59.943Z,58.35
2023-08-11T22:30:26.453Z,58.11
2023-08-11T22:32:53.161Z,58.42
2023-08-11T22:35:19.836Z,58.53
2023-08-11T22:37:46.358Z,58.32
2023-08-11T22:40:13.014Z,58.36
2023-08-11T22:42:39.594Z,58.45
2023-08-11T22:45:06.552Z,58.57
2023-08-11T22:47:33.219Z,58.91
2023-08-11T22:49:59.802Z,59.15
2023-08-11T22:52:26.437Z,59.07
2023-08-11T22:54:53.013Z,59.35
2023-08-11T22:57:19.586Z,58.94
2023-08-11T22:59:46.114Z,59.23
2023-08-11T23:02:12.749Z,59.52
2023-08-11T23:04:39.299Z,59.36
2023-08-11T23:07:05.961Z,59.79
2023-08-11T23:09:32.542Z,59.49
2023-08-11T23:11:59.103Z,59.49
2023-08-11T23:14:25.722Z,60.13
2023-08-11T23:16:52.302Z,59.47
2023-08-11T23:19:18.862Z,60.02
2023-08-11T23:21:45.457Z,60.31
2023-08-11T23:24:11.954Z,59.99
2023-08-11T23:26:38.527Z,60.04
2023-08-11T23:29:05.051Z,60.49
2023-08-11T23:31:31.779Z,60.00
2023-08-11T23:33:58.374Z,60.47
2023-08-11T23:36:25.036Z,60.42
2023-08-11T23:38:51.526Z,60.71
2023-08-11T23:41:18.139Z,61.00
2023-08-11T23:43:44.816Z,60.70
2023-08-11T23:46:11.394Z,61.17
2023-08-11T23:48:37.960Z,60.89
2023-08-11T23:51:04.634Z,60.93
2023-08-11T23:53:31.233Z,61.10
2023-08-11T23:55:58.111Z,61.35
2023-08-11T23:58:24.684Z,61.76
